createdAt,value
2023-01-22T00:03:37.635Z,100701.69
2023-01-22T00:07:39.579Z,100698.88
2023-01-22T00:11:41.858Z,100697.44
2023-01-22T00:15:43.720Z,100699.16
2023-01-22T00:19:45.646Z,100694.41
2023-01-22T00:23:47.415Z,100701.81
2023-01-22T00:27:49.121Z,100715.75
2023-01-22T00:31:50.975Z,100708.03
2023-01-22T00:35:52.813Z,100706.41
2023-01-22T00:39:54.543Z,100699.75
2023-01-22T00:43:56.332Z,100708.59
2023-01-22T00:47:58.126Z,100713.56
2023-01-22T00:52:00.045Z,100708.09
2023-01-22T00:56:02.180Z,100723.03
2023-01-22T01:00:04.804Z,100729.94
2023-01-22T01:04:06.613Z,100726.75
2023-01-22T01:08:08.502Z,100731.91
2023-01-22T01:12:10.310Z,100742.28
2023-01-22T01:16:17.894Z,100734.56
2023-01-22T01:20:19.919Z,100738.41
2023-01-22T01:24:21.848Z,100737.66
2023-01-22T01:28:24.811Z,100738.47
2023-01-22T01:32:26.561Z,100735.72
2023-01-22T01:36:47.167Z,100732.06
2023-01-22T01:40:52.644Z,100736.22
2023-01-22T01:45:25.970Z,100732.00
2023-01-22T01:50:00.309Z,100720.47
2023-01-22T01:54:03.245Z,100715.75
2023-01-22T01:58:11.272Z,100724.41
2023-01-22T02:02:13.974Z,100728.38
2023-01-22T02:06:17.609Z,100721.44
2023-01-22T02:10:19.770Z,100732.75
2023-01-22T02:14:26.652Z,100740.25
2023-01-22T02:18:28.394Z,100736.13
2023-01-22T02:22:31.544Z,100737.16
2023-01-22T02:26:33.410Z,100742.38
2023-01-22T02:30:35.418Z,100749.56
2023-01-22T02:34:37.172Z,100760.00
2023-01-22T02:38:38.988Z,100753.09
2023-01-22T02:42:41.050Z,100749.59
2023-01-22T02:46:43.051Z,100760.91
2023-01-22T02:50:45.812Z,100764.69
2023-01-22T02:54:47.537Z,100752.66
2023-01-22T02:58:49.471Z,100748.25
2023-01-22T03:02:51.324Z,100761.09
2023-01-22T03:06:53.328Z,100752.75
2023-01-22T03:10:58.804Z,100761.19
2023-01-22T03:15:18.931Z,100755.59
2023-01-22T03:19:39.263Z,100746.91
2023-01-22T03:23:41.743Z,100756.81
2023-01-22T03:28:03.443Z,100772.56
2023-01-22T03:32:06.212Z,100755.88
2023-01-22T03:36:11.643Z,100764.88
2023-01-22T03:40:13.448Z,100760.50
2023-01-22T03:44:15.400Z,100769.19
2023-01-22T03:48:17.151Z,100766.78
2023-01-22T03:52:18.992Z,100783.78
2023-01-22T03:56:22.293Z,100775.94
2023-01-22T04:00:24.265Z,100786.78
2023-01-22T04:04:26.170Z,100788.47
2023-01-22T04:08:29.237Z,100781.41
2023-01-22T04:12:31.043Z,100788.03
2023-01-22T04:16:32.762Z,100790.53
2023-01-22T04:20:34.595Z,100788.44
2023-01-22T04:24:36.512Z,100801.81
2023-01-22T04:28:38.275Z,100808.47
2023-01-22T04:32:40.048Z,100799.69
2023-01-22T04:36:41.896Z,100787.94
2023-01-22T04:40:43.614Z,100806.28
2023-01-22T04:44:45.458Z,100797.94
2023-01-22T04:48:47.361Z,100789.47
2023-01-22T04:52:51.279Z,100798.84
2023-01-22T04:56:53.182Z,100791.47
2023-01-22T05:00:57.068Z,100803.34
2023-01-22T05:04:58.878Z,100813.41
2023-01-22T05:09:00.619Z,100811.88
2023-01-22T05:13:04.498Z,100818.84
2023-01-22T05:17:06.444Z,100811.97
2023-01-22T05:21:08.354Z,100814.75
2023-01-22T05:25:10.133Z,100812.25
2023-01-22T05:29:11.858Z,100814.63
2023-01-22T05:33:13.610Z,100811.69
2023-01-22T05:37:15.329Z,100813.22
2023-01-22T05:41:20.259Z,100809.13
2023-01-22T05:45:25.024Z,100815.97
2023-01-22T05:49:26.804Z,100821.66
2023-01-22T05:53:28.576Z,100827.06
2023-01-22T05:57:33.072Z,100827.66
2023-01-22T06:01:35.101Z,100824.16
2023-01-22T06:05:37.017Z,100819.72
2023-01-22T06:09:39.260Z,100830.25
2023-01-22T06:13:41.396Z,100835.97
2023-01-22T06:17:43.227Z,100837.44
2023-01-22T06:21:45.029Z,100837.88
2023-01-22T06:25:53.072Z,100853.69
2023-01-22T06:29:54.990Z,100858.22
2023-01-22T06:33:56.703Z,100871.41
2023-01-22T06:37:58.477Z,100868.56
2023-01-22T06:42:00.283Z,100878.91
2023-01-22T06:46:03.782Z,100883.00
2023-01-22T06:50:05.923Z,100888.78
2023-01-22T06:54:07.836Z,100888.25
2023-01-22T06:58:09.671Z,100881.53
2023-01-22T07:02:17.053Z,100892.94
2023-01-22T07:06:20.494Z,100900.38
2023-01-22T07:10:22.607Z,100901.47
2023-01-22T07:14:36.580Z,100906.53
2023-01-22T07:18:41.647Z,100913.66
2023-01-22T07:22:43.537Z,100899.41
2023-01-22T07:26:48.881Z,100908.47
2023-01-22T07:30:56.647Z,100912.75
2023-01-22T07:34:58.943Z,100927.06
2023-01-22T07:39:04.166Z,100914.13
2023-01-22T07:43:06.801Z,100929.91
2023-01-22T07:47:08.755Z,100942.44
2023-01-22T07:51:12.767Z,100942.81
2023-01-22T07:55:14.915Z,100957.97
2023-01-22T07:59:16.776Z,100944.19
2023-01-22T08:03:22.485Z,100955.63
2023-01-22T08:07:26.957Z,100954.22
2023-01-22T08:11:40.132Z,100957.81
2023-01-22T08:15:42.972Z,100956.88
2023-01-22T08:19:44.900Z,100951.47
2023-01-22T08:23:49.503Z,100969.59
2023-01-22T08:27:51.361Z,100981.28
2023-01-22T08:31:54.641Z,100973.84
2023-01-22T08:36:00.044Z,100975.06
2023-01-22T08:40:02.126Z,100989.97
2023-01-22T08:44:06.927Z,100998.34
2023-01-22T08:48:08.800Z,100984.31
2023-01-22T08:52:10.620Z,101004.09
2023-01-22T08:56:14.759Z,100996.22
2023-01-22T09:00:23.028Z,100999.56
2023-01-22T09:04:24.900Z,101010.25
2023-01-22T09:08:29.526Z,100993.47
2023-01-22T09:12:37.376Z,101007.41
2023-01-22T09:16:42.197Z,100997.94
2023-01-22T09:21:02.837Z,101011.22
2023-01-22T09:25:07.519Z,101013.50
2023-01-22T09:29:12.117Z,101010.47
2023-01-22T09:33:14.025Z,101008.34
2023-01-22T09:37:18.072Z,101008.34
2023-01-22T09:41:38.142Z,101004.84
2023-01-22T09:45:40.103Z,101017.56
2023-01-22T09:50:07.419Z,101016.16
2023-01-22T09:54:12.920Z,101009.25
2023-01-22T09:58:21.353Z,101014.50
2023-01-22T10:02:47.286Z,101008.19
2023-01-22T10:06:49.184Z,101010.28
2023-01-22T10:10:52.128Z,101023.53
2023-01-22T10:14:53.961Z,101024.38
2023-01-22T10:19:04.138Z,101034.56
2023-01-22T10:23:16.876Z,101025.31
2023-01-22T10:27:31.439Z,101042.72
2023-01-22T10:31:36.552Z,101034.53
2023-01-22T10:35:47.776Z,101042.63
2023-01-22T10:39:50.943Z,101040.53
2023-01-22T10:43:52.759Z,101038.31
2023-01-22T10:48:06.204Z,101036.69
2023-01-22T10:52:31.375Z,101047.53
2023-01-22T10:56:42.991Z,101038.72
2023-01-22T11:00:51.746Z,101047.25
2023-01-22T11:04:58.947Z,101042.94
2023-01-22T11:09:15.720Z,101048.72
2023-01-22T11:13:44.977Z,101039.84
2023-01-22T11:18:24.458Z,101035.13
2023-01-22T11:22:35.511Z,101043.97
2023-01-22T11:26:53.811Z,101045.81
2023-01-22T11:31:34.262Z,101055.44
2023-01-22T11:35:49.952Z,101067.63
2023-01-22T11:40:13.410Z,101056.88
2023-01-22T11:44:43.068Z,101061.22
2023-01-22T11:49:22.350Z,101059.75
2023-01-22T11:53:43.417Z,101057.13
2023-01-22T11:58:04.578Z,101053.34
2023-01-22T12:02:49.674Z,101047.75
2023-01-22T12:07:09.373Z,101046.50
2023-01-22T12:11:21.661Z,101030.91
2023-01-22T12:15:51.694Z,101037.97
2023-01-22T12:20:22.059Z,101034.06
2023-01-22T12:24:40.008Z,101046.56
2023-01-22T12:29:07.979Z,101034.28
2023-01-22T12:33:14.960Z,101059.31
2023-01-22T12:37:20.409Z,101037.78
2023-01-22T12:42:07.086Z,101050.59
2023-01-22T12:46:44.437Z,101044.34
2023-01-22T12:51:07.732Z,101043.72
2023-01-22T12:55:29.859Z,101040.78
2023-01-22T13:00:24.202Z,101058.19
2023-01-22T13:04:33.499Z,101040.28
2023-01-22T13:08:53.476Z,101048.28
2023-01-22T13:13:21.334Z,101045.66
2023-01-22T13:17:33.089Z,101058.84
2023-01-22T13:21:36.357Z,101058.97
2023-01-22T13:25:38.284Z,101061.16
2023-01-22T13:29:42.169Z,101058.69
2023-01-22T13:34:15.203Z,101079.88
2023-01-22T13:38:31.008Z,101073.22
2023-01-22T13:42:40.327Z,101071.81
2023-01-22T13:46:42.234Z,101073.34
2023-01-22T13:51:00.887Z,101074.06
2023-01-22T13:55:12.164Z,101080.25
2023-01-22T13:59:27.641Z,101081.31
2023-01-22T14:03:30.328Z,101079.84
2023-01-22T14:07:38.040Z,101088.13
2023-01-22T14:11:43.782Z,101080.03
2023-01-22T14:16:06.950Z,101090.25
2023-01-22T14:20:09.771Z,101087.72
2023-01-22T14:24:11.650Z,101088.00
2023-01-22T14:28:13.587Z,101096.38
2023-01-22T14:32:15.405Z,101087.16
2023-01-22T14:36:18.535Z,101079.50
2023-01-22T14:40:21.864Z,101077.41
2023-01-22T14:44:23.720Z,101084.63
2023-01-22T14:48:25.700Z,101078.63
2023-01-22T14:52:27.455Z,101078.09
2023-01-22T14:56:29.241Z,101084.38
2023-01-22T15:00:30.971Z,101086.88
2023-01-22T15:04:32.785Z,101081.00
2023-01-22T15:08:34.601Z,101075.59
2023-01-22T15:12:36.653Z,101088.56
2023-01-22T15:16:39.174Z,101103.50
2023-01-22T15:20:41.008Z,101097.75
2023-01-22T15:24:43.833Z,101109.19
2023-01-22T15:28:45.825Z,101091.16
2023-01-22T15:32:47.695Z,101095.50
2023-01-22T15:36:49.760Z,101090.88
2023-01-22T15:41:21.699Z,101082.53
2023-01-22T15:45:23.619Z,101089.56
2023-01-22T15:49:36.653Z,101082.63
2023-01-22T15:53:38.734Z,101098.59
2023-01-22T15:57:40.958Z,101109.47
2023-01-22T16:01:48.377Z,101123.00
2023-01-22T16:06:26.535Z,101130.31
2023-01-22T16:10:21.420Z,101129.72
2023-01-22T16:14:23.677Z,101126.84
2023-01-22T16:18:28.991Z,101123.53
2023-01-22T16:22:31.003Z,101129.66
2023-01-22T16:26:42.440Z,101154.16
2023-01-22T16:30:44.662Z,101138.75
2023-01-22T16:34:46.769Z,101144.28
2023-01-22T16:38:53.488Z,101135.66
2023-01-22T16:43:05.141Z,101152.31
2023-01-22T16:47:11.399Z,101146.06
2023-01-22T16:51:30.835Z,101157.84
2023-01-22T16:55:32.954Z,101161.31
2023-01-22T16:59:38.089Z,101161.38
2023-01-22T17:03:42.697Z,101160.81
2023-01-22T17:07:44.689Z,101160.06
2023-01-22T17:11:51.608Z,101166.47
2023-01-22T17:15:56.366Z,101159.25
2023-01-22T17:20:05.626Z,101171.66
2023-01-22T17:24:08.088Z,101169.66
2023-01-22T17:28:12.262Z,101173.50
2023-01-22T17:32:14.131Z,101164.97
2023-01-22T17:36:16.983Z,101180.94
2023-01-22T17:40:21.727Z,101185.69
2023-01-22T17:44:26.787Z,101188.34
2023-01-22T17:48:28.683Z,101186.47
2023-01-22T17:52:33.199Z,101207.09
2023-01-22T17:56:38.984Z,101204.31
2023-01-22T18:00:41.385Z,101207.09
2023-01-22T18:04:45.784Z,101217.81
2023-01-22T18:08:47.855Z,101200.59
2023-01-22T18:13:07.114Z,101203.88
2023-01-22T18:17:14.031Z,101213.50
2023-01-22T18:21:24.474Z,101221.03
2023-01-22T18:25:28.150Z,101219.91
2023-01-22T18:29:30.343Z,101225.38
2023-01-22T18:33:37.771Z,101232.09
2023-01-22T18:37:51.080Z,101232.44
2023-01-22T18:41:55.140Z,101243.56
2023-01-22T18:46:07.381Z,101236.97
2023-01-22T18:50:19.830Z,101240.28
2023-01-22T18:54:50.221Z,101246.03
2023-01-22T18:58:56.796Z,101258.84
2023-01-22T19:03:08.516Z,101260.63
2023-01-22T19:07:28.805Z,101257.75
2023-01-22T19:11:34.925Z,101259.06
2023-01-22T19:15:42.074Z,101261.13
2023-01-22T19:19:44.088Z,101277.22
2023-01-22T19:24:03.224Z,101283.69
2023-01-22T19:28:08.633Z,101270.22
2023-01-22T19:32:14.427Z,101278.88
2023-01-22T19:36:27.485Z,101285.72
2023-01-22T19:40:35.507Z,101298.53
2023-01-22T19:44:41.094Z,101303.34
2023-01-22T19:48:46.478Z,101314.56
2023-01-22T19:52:56.908Z,101297.06
2023-01-22T19:56:58.822Z,101304.81
2023-01-22T20:01:00.843Z,101306.75
2023-01-22T20:05:02.834Z,101303.75
2023-01-22T20:09:07.506Z,101318.78
2023-01-22T20:13:13.301Z,101318.28
2023-01-22T20:17:16.712Z,101326.16
2023-01-22T20:21:19.179Z,101318.47
2023-01-22T20:25:33.804Z,101313.19
2023-01-22T20:29:45.661Z,101317.72
2023-01-22T20:33:50.453Z,101319.94
2023-01-22T20:37:52.605Z,101319.06
2023-01-22T20:41:54.845Z,101327.28
2023-01-22T20:46:04.992Z,101323.38
2023-01-22T20:50:07.770Z,101335.31
2023-01-22T20:54:10.002Z,101330.69
2023-01-22T20:58:11.818Z,101334.22
2023-01-22T21:02:24.962Z,101341.06
2023-01-22T21:06:30.267Z,101337.38
2023-01-22T21:10:31.977Z,101360.41
2023-01-22T21:15:18.982Z,101361.81
2023-01-22T21:20:47.958Z,101357.16
2023-01-22T21:24:24.485Z,101365.53
2023-01-22T21:28:26.415Z,101362.69
2023-01-22T21:32:30.677Z,101359.47
2023-01-22T21:36:35.848Z,101379.63
2023-01-22T21:40:37.709Z,101385.47
2023-01-22T21:44:58.262Z,101403.25
2023-01-22T21:49:16.258Z,101400.28
2023-01-22T21:53:18.207Z,101395.94
2023-01-22T21:57:21.476Z,101399.13
2023-01-22T22:01:34.025Z,101406.06
2023-01-22T22:05:35.995Z,101394.72
2023-01-22T22:09:37.889Z,101400.28
2023-01-22T22:13:39.818Z,101409.31
2023-01-22T22:17:41.783Z,101407.00
2023-01-22T22:21:43.743Z,101412.38
2023-01-22T22:25:49.048Z,101418.63
2023-01-22T22:29:54.431Z,101430.50
2023-01-22T22:33:56.753Z,101425.38
2023-01-22T22:37:58.555Z,101425.84
2023-01-22T22:42:03.251Z,101421.25
2023-01-22T22:46:07.727Z,101429.56
2023-01-22T22:50:10.445Z,101419.25
2023-01-22T22:54:15.976Z,101435.34
2023-01-22T22:58:18.651Z,101439.84
2023-01-22T23:02:21.209Z,101443.94
2023-01-22T23:06:29.500Z,101453.38
2023-01-22T23:10:31.484Z,101449.75
2023-01-22T23:14:33.344Z,101450.13
2023-01-22T23:18:35.424Z,101452.69
2023-01-22T23:22:37.209Z,101472.63
2023-01-22T23:26:39.103Z,101477.06
2023-01-22T23:30:41.010Z,101473.47
2023-01-22T23:34:42.848Z,101464.59
2023-01-22T23:38:45.102Z,101472.56
2023-01-22T23:42:50.247Z,101463.88
2023-01-22T23:46:53.235Z,101466.97
2023-01-22T23:50:55.038Z,101474.69
2023-01-22T23:54:58.091Z,101485.69
2023-01-22T23:58:59.980Z,101489.38
